Belview, Minnesota
Current Conditions -  °F | °C
As of 10:53 PM on Friday 24 Oct 2014 (Local Time) from KRWF Reporting Station
Clear Clear  
Wind Chill: 58°   Ceiling: Unl
Heat Index: 58°   Visibility: 10mi
Dew Point: 41°   Wind: 10mph
Humidity: 53%   Direction: 300°WNW
Pressure: 29.93"   Gusts: NA
Location:  44.61°N, 95.33°W
Report Text: KRWF 250353Z AUTO 30009KT 10SM CLR 14/05 A2993 RMK AO2 SLP135 T01440050
Loading
Personal Weather Stations






























Interactive Weather Map
Tropical Storm Tracking
New forecast layout! Learn more

10-Day Weather Forecast

Advertisements
Track Severe Weather on mobile